Aviation Digital Data Service (ADDS)

Output produced by METARs form (0741 UTC 24 October 2014)
found at http://aviationweather.gov/adds/metars/
 
KCLT 240544Z 2406/2506 35003KT P6SM SCT180 BKN250 
     FM241600 24003KT P6SM SCT160